createdAt,value
2023-01-29T00:00:20.040Z,5.43
2023-01-29T00:02:49.453Z,5.47
2023-01-29T00:05:27.953Z,6.00
2023-01-29T00:07:58.193Z,6.47
2023-01-29T00:10:29.037Z,6.67
2023-01-29T00:12:58.400Z,6.30
2023-01-29T00:15:27.748Z,6.63
2023-01-29T00:17:57.115Z,6.60
2023-01-29T00:20:26.332Z,7.07
2023-01-29T00:22:55.559Z,7.07
2023-01-29T00:25:25.322Z,6.67
2023-01-29T00:27:56.213Z,6.93
2023-01-29T00:30:25.465Z,7.57
2023-01-29T00:32:54.815Z,7.07
2023-01-29T00:35:24.145Z,6.90
2023-01-29T00:37:53.575Z,7.07
2023-01-29T00:40:23.321Z,6.10
2023-01-29T00:43:11.159Z,5.63
2023-01-29T00:45:42.828Z,5.50
2023-01-29T00:48:12.234Z,5.77
2023-01-29T00:50:41.765Z,5.83
2023-01-29T00:53:11.102Z,6.07
2023-01-29T00:55:40.375Z,5.13
2023-01-29T00:58:09.854Z,5.07
2023-01-29T01:00:39.191Z,5.53
2023-01-29T01:03:10.514Z,5.57
2023-01-29T01:05:40.534Z,5.77
2023-01-29T01:08:30.420Z,6.07
2023-01-29T01:11:03.746Z,5.87
2023-01-29T01:13:34.078Z,5.10
2023-01-29T01:16:04.039Z,5.43
2023-01-29T01:18:34.856Z,4.93
2023-01-29T01:21:04.207Z,5.10
2023-01-29T01:23:33.878Z,5.33
2023-01-29T01:26:03.437Z,4.43
2023-01-29T01:28:32.813Z,5.13
2023-01-29T01:31:10.526Z,4.93
2023-01-29T01:33:41.810Z,4.93
2023-01-29T01:36:11.252Z,4.93
2023-01-29T01:38:45.037Z,4.53
2023-01-29T01:41:18.442Z,4.53
2023-01-29T01:43:53.069Z,5.17
2023-01-29T01:46:23.013Z,5.23
2023-01-29T01:48:57.757Z,5.50
2023-01-29T01:51:30.378Z,4.73
2023-01-29T01:54:03.248Z,5.10
2023-01-29T01:56:41.062Z,4.77
2023-01-29T01:59:13.419Z,4.77
2023-01-29T02:01:48.200Z,5.50
2023-01-29T02:04:39.813Z,5.17
2023-01-29T02:07:29.334Z,5.57
2023-01-29T02:10:07.486Z,5.67
2023-01-29T02:12:38.735Z,5.57
2023-01-29T02:15:10.056Z,5.50
2023-01-29T02:17:40.113Z,5.57
2023-01-29T02:20:19.195Z,6.07
2023-01-29T02:23:08.800Z,5.07
2023-01-29T02:26:01.649Z,5.73
2023-01-29T02:28:42.906Z,6.93
2023-01-29T02:31:21.409Z,6.67
2023-01-29T02:34:02.515Z,6.57
2023-01-29T02:36:40.672Z,6.60
2023-01-29T02:39:18.705Z,6.63
2023-01-29T02:41:57.397Z,6.43
2023-01-29T02:44:35.754Z,6.37
2023-01-29T02:47:11.083Z,6.57
2023-01-29T02:49:49.797Z,6.63
2023-01-29T02:52:24.369Z,6.63
2023-01-29T02:55:00.109Z,6.30
2023-01-29T02:57:33.500Z,6.40
2023-01-29T03:00:10.695Z,6.80
2023-01-29T03:02:45.004Z,6.90
2023-01-29T03:05:19.957Z,6.23
2023-01-29T03:07:59.565Z,7.03
2023-01-29T03:10:39.314Z,7.43
2023-01-29T03:13:16.585Z,7.17
2023-01-29T03:15:52.384Z,6.27
2023-01-29T03:18:46.572Z,7.20
2023-01-29T03:21:39.192Z,6.97
2023-01-29T03:24:31.921Z,6.67
2023-01-29T03:27:23.316Z,7.97
2023-01-29T03:30:11.916Z,8.00
2023-01-29T03:32:52.820Z,6.97
2023-01-29T03:35:37.058Z,7.37
2023-01-29T03:38:10.339Z,7.40
2023-01-29T03:40:47.458Z,6.77
2023-01-29T03:43:28.218Z,7.13
2023-01-29T03:46:05.786Z,7.43
2023-01-29T03:48:40.269Z,7.50
2023-01-29T03:51:22.004Z,7.37
2023-01-29T03:53:55.323Z,7.30
2023-01-29T03:56:36.663Z,7.87
2023-01-29T03:59:16.227Z,7.53
2023-01-29T04:02:08.944Z,8.10
2023-01-29T04:04:43.331Z,7.03
2023-01-29T04:07:15.481Z,6.27
2023-01-29T04:09:49.138Z,7.40
2023-01-29T04:12:23.517Z,7.70
2023-01-29T04:14:53.877Z,7.03
2023-01-29T04:17:30.124Z,7.20
2023-01-29T04:20:23.744Z,7.67
2023-01-29T04:22:53.953Z,7.53
2023-01-29T04:25:29.257Z,6.77
2023-01-29T04:28:06.757Z,6.77
2023-01-29T04:30:46.040Z,7.90
2023-01-29T04:33:30.813Z,7.13
2023-01-29T04:36:14.848Z,6.97
2023-01-29T04:38:55.428Z,6.70
2023-01-29T04:41:30.137Z,6.80
2023-01-29T04:44:06.304Z,7.17
2023-01-29T04:46:44.185Z,6.60
2023-01-29T04:49:21.413Z,6.90
2023-01-29T04:51:59.768Z,7.03
2023-01-29T04:54:38.099Z,6.90
2023-01-29T04:57:13.240Z,7.90
2023-01-29T04:59:46.875Z,7.37
2023-01-29T05:02:16.106Z,7.10
2023-01-29T05:04:46.710Z,7.50
2023-01-29T05:07:19.274Z,7.47
2023-01-29T05:09:49.980Z,7.07
2023-01-29T05:12:19.846Z,7.43
2023-01-29T05:14:51.138Z,7.83
2023-01-29T05:17:22.308Z,7.60
2023-01-29T05:19:51.632Z,7.10
2023-01-29T05:22:23.431Z,7.30
2023-01-29T05:24:52.657Z,7.23
2023-01-29T05:27:44.232Z,7.70
2023-01-29T05:30:14.203Z,7.10
2023-01-29T05:32:43.528Z,7.17
2023-01-29T05:35:12.691Z,7.67
2023-01-29T05:37:43.304Z,7.47
2023-01-29T05:40:13.329Z,7.40
2023-01-29T05:42:42.553Z,7.17
2023-01-29T05:45:12.334Z,7.63
2023-01-29T05:47:41.528Z,7.40
2023-01-29T05:50:11.867Z,7.57
2023-01-29T05:52:42.509Z,7.80
2023-01-29T05:55:12.293Z,8.23
2023-01-29T05:57:42.378Z,7.20
2023-01-29T06:00:13.375Z,7.80
2023-01-29T06:02:42.605Z,7.60
2023-01-29T06:05:11.863Z,7.70
2023-01-29T06:07:45.648Z,8.20
2023-01-29T06:10:15.927Z,8.27
2023-01-29T06:12:45.736Z,7.93
2023-01-29T06:15:16.143Z,7.47
2023-01-29T06:17:45.601Z,7.87
2023-01-29T06:20:15.478Z,7.93
2023-01-29T06:22:46.467Z,7.67
2023-01-29T06:25:15.805Z,8.87
2023-01-29T06:27:45.066Z,8.17
2023-01-29T06:30:15.666Z,8.00
2023-01-29T06:32:45.027Z,7.47
2023-01-29T06:35:14.185Z,8.60
2023-01-29T06:37:43.408Z,7.60
2023-01-29T06:40:15.378Z,8.53
2023-01-29T06:42:46.111Z,9.03
2023-01-29T06:45:16.117Z,8.20
2023-01-29T06:47:45.367Z,9.00
2023-01-29T06:50:14.733Z,8.13
2023-01-29T06:52:44.058Z,8.83
2023-01-29T06:55:14.720Z,9.30
2023-01-29T06:57:43.982Z,8.77
2023-01-29T07:00:14.711Z,8.97
2023-01-29T07:02:44.162Z,9.10
2023-01-29T07:05:13.384Z,9.17
2023-01-29T07:07:42.648Z,8.80
2023-01-29T07:10:14.114Z,9.07
2023-01-29T07:12:43.529Z,9.03
2023-01-29T07:15:13.244Z,9.20
2023-01-29T07:17:42.572Z,9.17
2023-01-29T07:20:13.059Z,8.27
2023-01-29T07:22:42.283Z,9.20
2023-01-29T07:25:11.915Z,8.57
2023-01-29T07:27:42.570Z,8.27
2023-01-29T07:30:13.020Z,8.37
2023-01-29T07:32:42.515Z,8.40
2023-01-29T07:35:12.156Z,8.87
2023-01-29T07:37:41.407Z,8.30
2023-01-29T07:40:12.067Z,7.87
2023-01-29T07:42:44.302Z,7.90
2023-01-29T07:45:14.419Z,8.13
2023-01-29T07:47:43.767Z,8.90
2023-01-29T07:50:13.835Z,8.00
2023-01-29T07:52:43.143Z,8.47
2023-01-29T07:55:12.414Z,8.67
2023-01-29T07:57:43.104Z,8.20
2023-01-29T08:00:14.061Z,8.60
2023-01-29T08:02:43.763Z,8.30
2023-01-29T08:05:13.005Z,8.03
2023-01-29T08:07:42.223Z,8.27
2023-01-29T08:10:12.836Z,8.30
2023-01-29T08:12:43.540Z,7.97
2023-01-29T08:15:13.394Z,8.53
2023-01-29T08:17:56.119Z,8.37
2023-01-29T08:20:27.172Z,8.30
2023-01-29T08:23:01.642Z,8.80
2023-01-29T08:25:31.251Z,8.30
2023-01-29T08:28:02.794Z,8.40
2023-01-29T08:30:36.018Z,8.17
2023-01-29T08:33:06.012Z,8.00
2023-01-29T08:35:35.219Z,7.73
2023-01-29T08:38:05.976Z,7.97
2023-01-29T08:40:36.697Z,7.77
2023-01-29T08:43:09.458Z,8.23
2023-01-29T08:45:40.396Z,7.67
2023-01-29T08:48:10.346Z,7.87
2023-01-29T08:50:40.065Z,7.97
2023-01-29T08:53:10.291Z,7.30
2023-01-29T08:55:40.987Z,8.27
2023-01-29T08:58:13.792Z,7.67
2023-01-29T09:00:42.982Z,8.20
2023-01-29T09:03:12.212Z,7.50
2023-01-29T09:05:42.125Z,7.20
2023-01-29T09:08:11.765Z,7.67
2023-01-29T09:10:41.024Z,8.10
2023-01-29T09:13:11.716Z,8.13
2023-01-29T09:15:41.019Z,8.20
2023-01-29T09:18:10.274Z,7.47
2023-01-29T09:20:39.676Z,7.77
2023-01-29T09:23:10.131Z,7.23
2023-01-29T09:25:39.707Z,8.07
2023-01-29T09:28:08.863Z,8.07
2023-01-29T09:30:39.607Z,7.87
2023-01-29T09:33:09.518Z,8.63
2023-01-29T09:35:38.739Z,7.63
2023-01-29T09:38:07.972Z,7.60
2023-01-29T09:40:45.298Z,7.97
2023-01-29T09:43:19.382Z,7.97
2023-01-29T09:45:57.648Z,7.83
2023-01-29T09:48:31.554Z,8.50
2023-01-29T09:51:06.603Z,8.13
2023-01-29T09:53:41.879Z,8.33
2023-01-29T09:56:14.743Z,8.60
2023-01-29T09:58:45.084Z,9.07
2023-01-29T10:01:23.163Z,9.17
2023-01-29T10:04:27.204Z,9.60
2023-01-29T10:07:08.627Z,8.63
2023-01-29T10:10:05.625Z,8.93
2023-01-29T10:12:50.833Z,9.10
2023-01-29T10:15:30.817Z,8.70
2023-01-29T10:18:14.803Z,8.97
2023-01-29T10:20:53.729Z,8.07
2023-01-29T10:23:29.167Z,7.73
2023-01-29T10:25:58.987Z,8.30
2023-01-29T10:28:32.945Z,8.67
2023-01-29T10:31:05.688Z,8.70
2023-01-29T10:33:49.203Z,8.40
2023-01-29T10:36:35.666Z,8.60
2023-01-29T10:39:05.126Z,9.20
2023-01-29T10:41:54.134Z,9.10
2023-01-29T10:44:35.123Z,8.77
2023-01-29T10:47:22.080Z,8.73
2023-01-29T10:50:12.132Z,9.20
2023-01-29T10:52:57.010Z,8.20
2023-01-29T10:55:40.727Z,8.60
2023-01-29T10:58:20.986Z,9.90
2023-01-29T11:00:51.272Z,9.03
2023-01-29T11:03:28.260Z,9.13
2023-01-29T11:06:11.917Z,9.17
2023-01-29T11:08:47.525Z,9.47
2023-01-29T11:11:18.909Z,9.47
2023-01-29T11:13:54.208Z,9.47
2023-01-29T11:16:24.500Z,8.73
2023-01-29T11:18:56.835Z,9.17
2023-01-29T11:21:30.664Z,9.47
2023-01-29T11:24:17.508Z,8.73
2023-01-29T11:26:50.069Z,8.80
2023-01-29T11:29:44.247Z,9.23
2023-01-29T11:32:16.538Z,9.13
2023-01-29T11:35:02.397Z,9.07
2023-01-29T11:37:38.452Z,9.00
2023-01-29T11:40:42.366Z,10.17
2023-01-29T11:43:30.644Z,9.53
2023-01-29T11:46:03.100Z,9.27
2023-01-29T11:48:43.570Z,9.53
2023-01-29T11:51:24.115Z,9.77
2023-01-29T11:53:57.644Z,9.47
2023-01-29T11:56:33.298Z,9.77
2023-01-29T11:59:04.803Z,9.13
2023-01-29T12:01:37.704Z,10.53
2023-01-29T12:04:22.467Z,9.20
2023-01-29T12:06:54.474Z,9.93
2023-01-29T12:09:28.518Z,10.23
2023-01-29T12:12:17.973Z,9.87
2023-01-29T12:14:47.460Z,10.50
2023-01-29T12:17:24.505Z,11.30
2023-01-29T12:19:58.493Z,10.23
2023-01-29T12:22:41.705Z,10.67
2023-01-29T12:25:23.534Z,10.20
2023-01-29T12:28:02.563Z,10.67
2023-01-29T12:30:38.326Z,10.17
2023-01-29T12:33:17.398Z,9.80
2023-01-29T12:35:52.076Z,10.30
2023-01-29T12:38:23.785Z,10.17
2023-01-29T12:40:59.688Z,9.87
2023-01-29T12:43:34.941Z,10.53
2023-01-29T12:46:08.246Z,10.93
2023-01-29T12:48:43.183Z,11.23
2023-01-29T12:51:18.882Z,11.07
2023-01-29T12:53:58.057Z,11.03
2023-01-29T12:56:34.544Z,10.77
2023-01-29T12:59:11.286Z,11.17
2023-01-29T13:01:48.433Z,11.60
2023-01-29T13:04:27.533Z,11.17
2023-01-29T13:07:03.629Z,13.27
2023-01-29T13:09:36.455Z,11.47
2023-01-29T13:12:14.189Z,11.23
2023-01-29T13:14:49.956Z,11.90
2023-01-29T13:17:25.795Z,12.23
2023-01-29T13:20:00.117Z,12.63
2023-01-29T13:22:34.413Z,12.50
2023-01-29T13:25:06.016Z,12.63
2023-01-29T13:27:38.669Z,12.83
2023-01-29T13:30:09.192Z,12.97
2023-01-29T13:32:39.033Z,12.60
2023-01-29T13:35:15.700Z,12.20
2023-01-29T13:37:50.828Z,12.50
2023-01-29T13:40:25.654Z,13.07
2023-01-29T13:43:00.211Z,12.30
2023-01-29T13:45:36.003Z,12.73
2023-01-29T13:48:21.803Z,11.97
2023-01-29T13:50:54.942Z,13.73
2023-01-29T13:53:28.856Z,13.13
2023-01-29T13:56:38.647Z,12.97
2023-01-29T13:59:24.289Z,12.50
2023-01-29T14:02:05.557Z,12.13
2023-01-29T14:04:35.426Z,12.73
2023-01-29T14:07:41.717Z,14.53
2023-01-29T14:10:20.418Z,12.47
2023-01-29T14:12:54.704Z,14.53
2023-01-29T14:15:34.631Z,14.77
2023-01-29T14:18:22.510Z,13.93
2023-01-29T14:21:04.059Z,14.77
2023-01-29T14:23:48.461Z,14.43
2023-01-29T14:26:29.282Z,14.33
2023-01-29T14:29:06.393Z,15.80
2023-01-29T14:31:44.174Z,16.60
2023-01-29T14:34:29.910Z,15.87
2023-01-29T14:37:03.551Z,16.97
2023-01-29T14:39:39.852Z,16.33
2023-01-29T14:42:23.640Z,16.77
2023-01-29T14:45:10.531Z,15.50
2023-01-29T14:48:38.990Z,15.33
2023-01-29T14:51:12.580Z,15.77
2023-01-29T14:53:59.670Z,15.03
2023-01-29T14:56:35.034Z,14.80
2023-01-29T14:59:18.099Z,15.00
2023-01-29T15:01:53.636Z,16.20
2023-01-29T15:04:29.209Z,15.53
2023-01-29T15:07:05.998Z,15.17
2023-01-29T15:09:41.976Z,16.97
2023-01-29T15:12:21.307Z,15.00
2023-01-29T15:15:01.529Z,13.50
2023-01-29T15:17:38.353Z,14.70
2023-01-29T15:20:34.712Z,15.40
2023-01-29T15:23:05.152Z,15.50
2023-01-29T15:25:38.875Z,14.20
2023-01-29T15:28:12.954Z,14.67
2023-01-29T15:30:45.342Z,14.00
2023-01-29T15:33:17.516Z,14.63
2023-01-29T15:35:51.659Z,15.43
2023-01-29T15:38:27.762Z,14.17
2023-01-29T15:41:01.636Z,15.40
2023-01-29T15:43:34.623Z,16.07
2023-01-29T15:46:08.318Z,14.20
2023-01-29T15:48:41.913Z,14.83
2023-01-29T15:51:17.181Z,13.80
2023-01-29T15:53:52.812Z,14.60
2023-01-29T15:56:28.523Z,14.57
2023-01-29T15:59:04.060Z,14.30
2023-01-29T16:01:36.716Z,15.23
2023-01-29T16:04:07.318Z,14.57
2023-01-29T16:06:41.485Z,14.80
2023-01-29T16:09:21.090Z,15.57
2023-01-29T16:11:53.017Z,15.80
2023-01-29T16:14:27.202Z,16.17
2023-01-29T16:16:59.908Z,17.00
2023-01-29T16:19:31.366Z,17.17
2023-01-29T16:22:05.823Z,17.97
2023-01-29T16:24:39.943Z,18.77
2023-01-29T16:27:16.053Z,19.07
2023-01-29T16:29:46.798Z,19.17
2023-01-29T16:32:18.856Z,19.50
2023-01-29T16:34:56.272Z,20.07
2023-01-29T16:37:31.068Z,19.27
2023-01-29T16:40:01.515Z,20.80
2023-01-29T16:42:33.014Z,19.90
2023-01-29T16:45:05.614Z,18.73
2023-01-29T16:47:39.850Z,19.77
2023-01-29T16:50:27.764Z,18.73
2023-01-29T16:53:04.493Z,20.60
2023-01-29T16:55:38.439Z,20.80
2023-01-29T16:58:17.261Z,20.00
2023-01-29T17:00:51.467Z,20.40
2023-01-29T17:03:23.439Z,20.40
2023-01-29T17:06:04.067Z,20.03
2023-01-29T17:08:38.212Z,19.77
2023-01-29T17:11:10.037Z,19.77
2023-01-29T17:13:43.523Z,20.33
2023-01-29T17:16:24.096Z,19.73
2023-01-29T17:18:55.525Z,20.57
2023-01-29T17:21:30.264Z,20.57
2023-01-29T17:24:02.123Z,20.10
2023-01-29T17:26:34.985Z,19.73
2023-01-29T17:29:09.117Z,20.97
2023-01-29T17:31:40.002Z,20.87
2023-01-29T17:34:15.459Z,20.80
2023-01-29T17:36:46.892Z,19.47
2023-01-29T17:39:21.973Z,22.20
2023-01-29T17:41:54.989Z,23.50
2023-01-29T17:44:31.740Z,22.37
2023-01-29T17:47:02.712Z,23.23
2023-01-29T17:49:34.615Z,20.67
2023-01-29T17:52:09.864Z,21.07
2023-01-29T17:54:43.254Z,21.63
2023-01-29T17:57:19.530Z,20.50
2023-01-29T17:59:51.222Z,21.40
2023-01-29T18:02:29.226Z,20.10
2023-01-29T18:05:02.818Z,20.43
2023-01-29T18:07:33.671Z,20.43
2023-01-29T18:10:07.029Z,20.17
2023-01-29T18:12:38.934Z,20.67
2023-01-29T18:15:11.642Z,19.77
2023-01-29T18:17:43.747Z,19.33
2023-01-29T18:20:26.448Z,20.60
2023-01-29T18:23:06.224Z,20.60
2023-01-29T18:25:38.852Z,19.20
2023-01-29T18:28:15.252Z,19.77
2023-01-29T18:30:47.950Z,19.23
2023-01-29T18:33:23.022Z,19.77
2023-01-29T18:35:55.673Z,19.87
2023-01-29T18:38:27.488Z,19.50
2023-01-29T18:41:07.763Z,19.73
2023-01-29T18:43:38.238Z,20.43
2023-01-29T18:46:11.907Z,19.70
2023-01-29T18:48:44.376Z,20.07
2023-01-29T18:51:15.334Z,20.53
2023-01-29T18:53:48.013Z,19.73
2023-01-29T18:56:22.141Z,19.57
2023-01-29T18:58:58.575Z,19.40
2023-01-29T19:01:31.740Z,20.83
2023-01-29T19:04:03.453Z,21.50
2023-01-29T19:06:38.062Z,22.23
2023-01-29T19:09:08.432Z,20.33
2023-01-29T19:11:44.191Z,20.83
2023-01-29T19:14:15.009Z,21.33
2023-01-29T19:16:46.314Z,20.93
2023-01-29T19:19:18.848Z,21.17
2023-01-29T19:21:49.643Z,21.17
2023-01-29T19:24:20.836Z,21.23
2023-01-29T19:26:57.342Z,21.63
2023-01-29T19:29:30.290Z,22.13
2023-01-29T19:32:03.105Z,21.30
2023-01-29T19:34:33.754Z,21.67
2023-01-29T19:37:05.830Z,21.93
2023-01-29T19:39:37.454Z,22.00
2023-01-29T19:42:10.898Z,22.87
2023-01-29T19:44:42.547Z,21.23
2023-01-29T19:47:16.827Z,22.30
2023-01-29T19:49:48.695Z,21.47
2023-01-29T19:52:41.443Z,23.07
2023-01-29T19:55:22.605Z,21.47
2023-01-29T19:57:59.228Z,21.20
2023-01-29T20:00:33.824Z,21.27
2023-01-29T20:03:05.517Z,20.73
2023-01-29T20:05:39.816Z,21.20
2023-01-29T20:08:11.334Z,22.63
2023-01-29T20:10:42.540Z,21.27
2023-01-29T20:13:16.463Z,21.07
2023-01-29T20:15:50.687Z,21.13
2023-01-29T20:18:27.568Z,21.43
2023-01-29T20:20:59.173Z,22.43
2023-01-29T20:23:37.044Z,21.57
2023-01-29T20:26:10.268Z,21.87
2023-01-29T20:28:44.309Z,20.23
2023-01-29T20:31:15.064Z,19.67
2023-01-29T20:33:46.992Z,20.20
2023-01-29T20:36:18.279Z,18.83
2023-01-29T20:38:49.774Z,20.17
2023-01-29T20:41:21.549Z,19.57
2023-01-29T20:43:54.040Z,17.73
2023-01-29T20:46:24.295Z,19.23
2023-01-29T20:48:58.560Z,19.33
2023-01-29T20:51:31.112Z,19.93
2023-01-29T20:54:02.928Z,18.97
2023-01-29T20:56:40.257Z,20.23
2023-01-29T20:59:19.279Z,20.07
2023-01-29T21:01:50.898Z,18.93
2023-01-29T21:04:25.330Z,19.27
2023-01-29T21:06:57.290Z,19.83
2023-01-29T21:09:28.120Z,20.37
2023-01-29T21:11:59.444Z,19.57
2023-01-29T21:14:31.612Z,20.80
2023-01-29T21:17:04.133Z,19.40
2023-01-29T21:19:35.173Z,20.30
2023-01-29T21:22:07.185Z,20.07
2023-01-29T21:24:37.860Z,19.53
2023-01-29T21:27:08.243Z,19.20
2023-01-29T21:29:40.977Z,20.50
2023-01-29T21:32:12.295Z,19.37
2023-01-29T21:34:42.930Z,20.07
2023-01-29T21:37:13.652Z,18.90
2023-01-29T21:39:43.217Z,19.73
2023-01-29T21:42:30.111Z,19.43
2023-01-29T21:45:03.033Z,18.73
2023-01-29T21:47:33.401Z,18.33
2023-01-29T21:50:03.342Z,20.17
2023-01-29T21:52:33.013Z,19.13
2023-01-29T21:55:02.601Z,20.00
2023-01-29T21:57:31.921Z,18.27
2023-01-29T22:00:03.695Z,19.97
2023-01-29T22:02:33.832Z,19.97
2023-01-29T22:05:18.208Z,19.10
2023-01-29T22:07:49.305Z,19.20
2023-01-29T22:10:20.233Z,17.83
2023-01-29T22:12:50.332Z,19.47
2023-01-29T22:15:23.488Z,20.13
2023-01-29T22:17:53.276Z,20.17
2023-01-29T22:20:29.812Z,20.40
2023-01-29T22:23:00.819Z,20.17
2023-01-29T22:25:30.236Z,19.30
2023-01-29T22:27:59.893Z,19.83
2023-01-29T22:30:30.670Z,20.27
2023-01-29T22:33:00.123Z,20.83
2023-01-29T22:35:29.440Z,20.17
2023-01-29T22:37:58.612Z,20.77
2023-01-29T22:40:27.991Z,21.10
2023-01-29T22:42:57.191Z,20.17
2023-01-29T22:45:26.497Z,20.23
2023-01-29T22:47:57.412Z,21.27
2023-01-29T22:50:26.645Z,20.67
2023-01-29T22:52:55.869Z,20.70
2023-01-29T22:55:25.217Z,19.90
2023-01-29T22:57:54.824Z,19.30
2023-01-29T23:00:24.630Z,20.20
2023-01-29T23:02:53.890Z,20.57
2023-01-29T23:05:24.621Z,20.23
2023-01-29T23:07:53.934Z,20.23
2023-01-29T23:10:23.050Z,20.13
2023-01-29T23:12:52.323Z,20.13
2023-01-29T23:15:21.556Z,19.67
2023-01-29T23:17:50.718Z,20.53
2023-01-29T23:20:21.964Z,19.33
2023-01-29T23:22:52.819Z,19.53
2023-01-29T23:25:22.154Z,19.73
2023-01-29T23:27:50.389Z,19.67
2023-01-29T23:30:20.121Z,19.67
2023-01-29T23:32:49.718Z,18.23
2023-01-29T23:35:19.011Z,20.07
2023-01-29T23:37:48.278Z,18.17
2023-01-29T23:40:19.592Z,19.80
2023-01-29T23:42:50.250Z,18.83
2023-01-29T23:45:20.431Z,17.23
2023-01-29T23:47:49.630Z,17.13
2023-01-29T23:50:19.483Z,17.23
2023-01-29T23:52:48.896Z,18.43
2023-01-29T23:55:19.728Z,17.17
2023-01-29T23:57:48.979Z,17.60
